Time;durP1;ratioP1;P1;durP2;ratioP2;P2;SDS_P1;SDS_P2;PMS_P1;PMS_P2;Temp;Humidity;BMP_temperature;BMP_pressure;BME280_temperature;BME280_humidity;BME280_pressure;Samples;Min_cycle;Max_cycle;Signal;HPM_P1;HPM_P2
2022/08/05 04:31:11;;;;;;;;;3.00;3.00;;;;;19.60;62.76;101351.13;5643090;22;46764;-60
2022/08/05 04:33:36;;;;;;;;;4.00;2.00;;;;;19.61;62.32;101355.56;5035092;28;45436;-60
2022/08/05 04:36:02;;;;;;;;;5.00;4.00;;;;;19.63;63.20;101355.44;5018372;28;45806;-60
2022/08/05 04:38:28;;;;;;;;;2.00;2.00;;;;;19.61;62.57;101357.41;5014682;28;45488;-60
2022/08/05 04:40:53;;;;;;;;;3.33;3.33;;;;;19.61;61.80;101354.72;5008108;28;45808;-61
2022/08/05 04:43:19;;;;;;;;;3.00;3.00;;;;;19.60;62.07;101353.00;5007672;28;45306;-61
2022/08/05 04:45:44;;;;;;;;;8.00;5.33;;;;;19.59;61.72;101356.66;5024000;28;45416;-61
2022/08/05 04:48:12;;;;;;;;;4.00;4.00;;;;;19.59;62.60;101362.06;5001595;28;45456;-61
2022/08/05 04:50:46;;;;;;;;;3.00;3.00;;;;;19.60;61.73;101361.94;5010939;28;47016;-61
2022/08/05 04:53:13;;;;;;;;;4.00;3.00;;;;;19.60;62.08;101371.88;4987291;28;45485;-61
2022/08/05 04:55:39;;;;;;;;;4.00;3.67;;;;;19.57;61.64;101370.28;5001943;28;45441;-60
2022/08/05 04:58:06;;;;;;;;;5.00;2.33;;;;;19.58;62.20;101369.31;5020295;28;45589;-61
2022/08/05 05:00:33;;;;;;;;;3.00;3.00;;;;;19.59;61.85;101376.41;5006687;28;47171;-61
2022/08/05 05:02:59;;;;;;;;;3.00;3.00;;;;;19.60;62.54;101380.81;5001952;28;45353;-60
2022/08/05 05:05:24;;;;;;;;;4.00;3.67;;;;;19.61;62.35;101387.94;5006830;28;45740;-61
2022/08/05 05:07:50;;;;;;;;;4.00;4.00;;;;;19.64;61.49;101382.28;5023935;28;45530;-62
2022/08/05 05:10:16;;;;;;;;;3.67;3.67;;;;;19.71;61.11;101388.09;5036105;28;45610;-61
2022/08/05 05:12:41;;;;;;;;;3.67;3.33;;;;;19.77;62.52;101389.41;5022781;28;45404;-60
2022/08/05 05:15:07;;;;;;;;;9.33;3.00;;;;;19.77;61.78;101392.97;5023560;28;46857;-61
2022/08/05 05:17:40;;;;;;;;;3.00;3.00;;;;;19.77;61.88;101394.81;5020709;28;45655;-61
2022/08/05 05:20:07;;;;;;;;;5.00;3.00;;;;;19.78;61.31;101405.50;5020872;28;48465;-60
2022/08/05 05:22:33;;;;;;;;;5.00;5.00;;;;;19.85;62.12;101408.59;5016679;28;45994;-62
2022/08/05 05:24:59;;;;;;;;;2.00;2.00;;;;;19.94;62.08;101413.25;5034484;28;45712;-61
2022/08/05 05:27:24;;;;;;;;;5.67;4.67;;;;;20.01;61.25;101408.19;5007148;28;45519;-61
2022/08/05 05:29:50;;;;;;;;;3.00;3.00;;;;;20.07;61.53;101413.13;4990663;28;46046;-61
2022/08/05 05:32:15;;;;;;;;;2.33;2.33;;;;;20.15;61.22;101418.78;5039241;28;45226;-61
2022/08/05 05:34:41;;;;;;;;;4.33;4.33;;;;;20.25;60.45;101420.72;5035547;28;45714;-61
2022/08/05 05:37:06;;;;;;;;;3.67;3.67;;;;;20.28;60.65;101426.72;5016456;28;45323;-61
2022/08/05 05:39:32;;;;;;;;;5.33;5.00;;;;;20.29;60.35;101427.59;5031943;28;47241;-61
2022/08/05 05:41:57;;;;;;;;;4.00;3.33;;;;;20.26;60.21;101434.09;5017712;28;45462;-61
2022/08/05 05:44:22;;;;;;;;;4.00;2.00;;;;;20.27;60.53;101434.94;5036226;28;45901;-61
2022/08/05 05:46:48;;;;;;;;;5.00;3.33;;;;;20.27;60.59;101438.53;5029696;28;45534;-62
2022/08/05 05:49:13;;;;;;;;;4.00;4.00;;;;;20.22;60.27;101439.84;5030634;28;46537;-61
2022/08/05 05:51:38;;;;;;;;;4.33;4.33;;;;;20.16;59.79;101438.53;5033465;28;69054;-62
2022/08/05 05:54:04;;;;;;;;;2.67;2.00;;;;;20.12;60.02;101437.91;5036541;28;45449;-61
2022/08/05 05:56:30;;;;;;;;;3.00;3.00;;;;;20.13;59.93;101438.78;5028448;28;45367;-62
2022/08/05 05:58:56;;;;;;;;;2.67;2.33;;;;;20.16;60.01;101443.94;5034959;28;45342;-61
2022/08/05 06:01:21;;;;;;;;;6.00;5.00;;;;;20.16;60.09;101444.78;5016784;28;45266;-62
2022/08/05 06:03:47;;;;;;;;;5.00;4.00;;;;;20.17;60.64;101441.09;5035524;28;45459;-61
2022/08/05 06:06:13;;;;;;;;;3.33;3.33;;;;;20.25;59.95;101447.72;5016523;28;45604;-62
2022/08/05 06:08:38;;;;;;;;;6.33;4.33;;;;;20.30;59.91;101461.72;5033960;28;47047;-61
2022/08/05 06:11:04;;;;;;;;;4.00;4.00;;;;;20.29;60.07;101452.75;5028841;28;45270;-61
2022/08/05 06:13:30;;;;;;;;;4.00;4.00;;;;;20.26;60.15;101461.09;5022482;28;45284;-60
2022/08/05 06:15:56;;;;;;;;;4.00;4.00;;;;;20.28;59.88;101464.53;5021629;28;45507;-62
2022/08/05 06:18:21;;;;;;;;;3.67;3.67;;;;;20.31;59.76;101461.59;5015246;28;46463;-61
2022/08/05 06:20:46;;;;;;;;;6.00;4.33;;;;;20.38;59.93;101463.81;5038281;28;45507;-62
2022/08/05 06:23:12;;;;;;;;;7.00;5.67;;;;;20.42;59.70;101467.97;5039975;28;45464;-60
2022/08/05 06:25:37;;;;;;;;;1.00;1.00;;;;;20.45;59.17;101470.41;5032260;28;45614;-62
2022/08/05 06:28:03;;;;;;;;;5.33;4.00;;;;;20.47;59.56;101468.47;5031441;28;45476;-61
2022/08/05 06:30:28;;;;;;;;;9.00;4.00;;;;;20.49;59.38;101471.88;5031579;28;45297;-62
2022/08/05 06:32:54;;;;;;;;;3.50;3.50;;;;;20.49;59.05;101464.66;5029416;28;45328;-61
2022/08/05 06:35:19;;;;;;;;;4.00;4.00;;;;;20.54;59.44;101471.50;5032155;28;45392;-61
2022/08/05 06:37:45;;;;;;;;;3.00;3.00;;;;;20.59;58.77;101474.69;5025863;28;45350;-61
2022/08/05 06:40:11;;;;;;;;;4.00;4.00;;;;;20.66;59.23;101471.38;5008822;28;45345;-60
2022/08/05 06:42:36;;;;;;;;;5.67;5.00;;;;;20.74;58.93;101476.16;5023879;28;45339;-61
2022/08/05 06:45:02;;;;;;;;;6.33;5.00;;;;;20.80;59.06;101480.19;5029341;28;45477;-61
2022/08/05 06:47:28;;;;;;;;;6.33;4.67;;;;;20.82;58.10;101478.25;5032439;28;45314;-62
2022/08/05 06:49:53;;;;;;;;;3.33;3.33;;;;;20.86;58.14;101468.88;5032584;28;45458;-61
2022/08/05 06:52:19;;;;;;;;;4.67;4.67;;;;;20.95;58.45;101468.13;5015429;28;45329;-61
2022/08/05 06:54:44;;;;;;;;;5.00;5.00;;;;;21.08;58.45;101478.75;5018729;28;45578;-61
2022/08/05 06:57:13;;;;;;;;;3.00;3.00;;;;;21.21;57.69;101473.19;5036249;28;45664;-62
2022/08/05 06:59:39;;;;;;;;;3.00;3.00;;;;;21.33;57.49;101476.69;5013797;28;45428;-61
2022/08/05 07:02:04;;;;;;;;;5.33;5.33;;;;;21.46;57.58;101481.91;5031799;28;45604;-61
2022/08/05 07:04:30;;;;;;;;;4.00;4.00;;;;;21.60;56.92;101475.31;5029852;28;45461;-61
2022/08/05 07:06:55;;;;;;;;;6.00;4.67;;;;;21.69;56.48;101489.91;5037492;28;45591;-62
2022/08/05 07:09:21;;;;;;;;;5.00;3.67;;;;;21.78;56.27;101483.69;5003362;28;45534;-62
2022/08/05 07:11:47;;;;;;;;;4.00;4.00;;;;;21.88;55.88;101487.31;4997644;28;45448;-62
2022/08/05 07:17:01;;;;;;;;;6.00;3.00;;;;;22.16;55.76;101490.28;5020034;28;45420;-62
2022/08/05 07:19:27;;;;;;;;;4.00;4.00;;;;;22.35;55.45;101496.81;5030760;28;45362;-61
2022/08/05 07:21:54;;;;;;;;;4.00;4.00;;;;;22.50;55.03;101490.00;5037415;28;45605;-61
2022/08/05 07:24:20;;;;;;;;;6.33;4.00;;;;;22.68;55.00;101502.91;5035032;28;45417;-62
2022/08/05 07:26:47;;;;;;;;;6.67;4.00;;;;;22.83;53.97;101498.81;5027476;28;45992;-61
2022/08/05 07:29:13;;;;;;;;;4.00;4.00;;;;;23.00;54.51;101505.41;5030811;28;52768;-61
2022/08/05 07:31:49;;;;;;;;;8.00;5.67;;;;;23.17;53.87;101509.31;5068188;27;45796;-60
2022/08/05 07:34:14;;;;;;;;;4.33;4.33;;;;;23.40;53.35;101506.28;5055278;28;45441;-60
2022/08/05 07:36:40;;;;;;;;;6.00;5.00;;;;;23.66;52.97;101506.53;5054143;28;45462;-60
2022/08/05 07:39:07;;;;;;;;;9.00;7.00;;;;;23.94;52.80;101514.81;5041520;28;45753;-60
2022/08/05 07:41:33;;;;;;;;;5.00;5.00;;;;;24.17;51.49;101522.59;5054383;28;46551;-60
2022/08/05 07:43:59;;;;;;;;;6.00;6.00;;;;;24.45;51.34;101523.47;5056343;28;45401;-60
2022/08/05 07:46:27;;;;;;;;;6.67;6.67;;;;;24.72;51.09;101522.66;5052804;28;46807;-60
2022/08/05 07:48:57;;;;;;;;;4.00;4.00;;;;;24.99;50.48;101520.91;5055698;28;45695;-60
2022/08/05 07:51:23;;;;;;;;;8.00;6.67;;;;;25.29;49.03;101529.69;5051524;28;46149;-61
2022/08/05 07:53:49;;;;;;;;;9.00;7.33;;;;;25.61;48.15;101538.34;5059198;28;69392;-60
2022/08/05 07:56:14;;;;;;;;;6.67;5.00;;;;;25.98;48.37;101534.50;5057249;28;45470;-60
2022/08/05 07:58:39;;;;;;;;;5.33;4.67;;;;;26.39;47.85;101542.94;5056522;28;60365;-61
2022/08/05 08:01:05;;;;;;;;;5.67;4.33;;;;;26.71;45.44;101542.22;5052539;28;45973;-61
2022/08/05 08:03:30;;;;;;;;;8.00;7.00;;;;;27.03;44.96;101542.50;5044686;28;57141;-61
2022/08/05 08:05:56;;;;;;;;;5.00;4.00;;;;;27.35;43.80;101552.63;5053548;28;46325;-61
2022/08/05 08:08:21;;;;;;;;;7.00;5.00;;;;;27.72;44.24;101550.44;5052218;28;67588;-61
2022/08/05 08:10:46;;;;;;;;;6.33;4.00;;;;;28.16;42.63;101555.53;5047819;28;71783;-61
2022/08/05 08:13:12;;;;;;;;;5.00;5.00;;;;;28.63;42.96;101559.28;5051981;28;68691;-61
2022/08/05 08:15:37;;;;;;;;;5.67;3.67;;;;;29.18;42.81;101564.84;5050667;28;62770;-61
2022/08/05 08:18:02;;;;;;;;;6.50;5.00;;;;;29.68;41.07;101559.84;5052930;28;63238;-62
2022/08/05 08:20:28;;;;;;;;;3.75;3.25;;;;;30.15;40.77;101564.19;5031854;28;46404;-61
2022/08/05 08:22:58;;;;;;;;;4.67;3.33;;;;;30.74;40.07;101564.38;5046246;28;68510;-61
2022/08/05 08:25:24;;;;;;;;;4.00;2.67;;;;;31.26;36.99;101563.28;5057602;28;45614;-61
2022/08/05 08:27:49;;;;;;;;;4.00;4.00;;;;;31.63;36.64;101569.59;5045282;28;45290;-61
2022/08/05 08:30:15;;;;;;;;;4.25;3.50;;;;;32.02;36.27;101572.00;5048469;28;69095;-61
2022/08/05 08:32:40;;;;;;;;;5.50;4.25;;;;;32.49;32.09;101574.00;5041067;28;69413;-61
2022/08/05 08:35:06;;;;;;;;;1.00;1.00;;;;;32.95;34.80;101588.22;5049621;28;45545;-61
2022/08/05 08:37:32;;;;;;;;;6.00;4.00;;;;;33.40;34.11;101579.44;5047452;28;45450;-61
2022/08/05 08:39:57;;;;;;;;;4.00;4.00;;;;;33.84;33.26;101588.19;5052016;28;46326;-61
2022/08/05 08:42:24;;;;;;;;;4.33;4.33;;;;;34.34;33.30;101579.41;5044032;28;45232;-61
2022/08/05 08:44:53;;;;;;;;;2.00;2.00;;;;;34.73;31.22;101583.09;5018232;28;64702;-61
2022/08/05 08:47:23;;;;;;;;;3.75;2.75;;;;;35.17;30.80;101591.63;5028325;28;45656;-61
2022/08/05 08:49:51;;;;;;;;;2.75;2.75;;;;;35.51;29.14;101589.50;5039851;28;46064;-62
2022/08/05 08:52:21;;;;;;;;;2.75;1.00;;;;;35.72;29.77;101594.66;5040518;28;45518;-61
2022/08/05 08:54:47;;;;;;;;;4.25;2.50;;;;;36.03;29.59;101594.81;5019662;28;45442;-61
2022/08/05 08:57:12;;;;;;;;;3.00;3.00;;;;;36.35;28.16;101601.09;5040526;28;45349;-62
2022/08/05 08:59:38;;;;;;;;;0.00;0.00;;;;;36.52;25.49;101594.94;5032918;28;46812;-61
2022/08/05 09:02:05;;;;;;;;;8.25;6.50;;;;;36.70;27.83;101605.16;5031915;28;45348;-62
2022/08/05 09:04:35;;;;;;;;;4.25;3.25;;;;;37.16;26.07;101608.44;5028304;28;45304;-62
2022/08/05 09:07:00;;;;;;;;;3.75;2.75;;;;;37.37;27.06;101609.84;5041986;28;45612;-61
2022/08/05 09:09:26;;;;;;;;;3.00;3.00;;;;;37.56;25.92;101617.00;5042196;28;45689;-62
2022/08/05 09:11:51;;;;;;;;;6.75;6.75;;;;;37.49;24.85;101616.25;5040400;28;46440;-61
2022/08/05 09:14:16;;;;;;;;;4.50;4.50;;;;;37.40;25.05;101618.53;5039122;28;68058;-62
2022/08/05 09:16:42;;;;;;;;;4.25;4.00;;;;;37.37;25.04;101612.63;5042490;28;58864;-61
2022/08/05 09:19:08;;;;;;;;;4.00;4.00;;;;;37.74;23.66;101617.97;5036769;28;71929;-61
2022/08/05 09:21:33;;;;;;;;;4.25;4.25;;;;;38.19;24.53;101611.84;5026895;28;45359;-61
2022/08/05 09:24:11;;;;;;;;;3.50;2.75;;;;;38.55;24.72;101612.69;5026447;28;45760;-61
2022/08/05 09:26:37;;;;;;;;;3.25;3.25;;;;;38.71;24.48;101613.00;5046011;28;45693;-61
2022/08/05 09:29:05;;;;;;;;;6.50;6.50;;;;;38.85;23.18;101619.13;5043338;28;47113;-61
2022/08/05 09:31:31;;;;;;;;;4.00;4.00;;;;;39.02;23.99;101616.41;5035909;28;45804;-58
2022/08/05 09:34:00;;;;;;;;;6.00;3.00;;;;;38.83;22.48;101621.34;5039643;28;45537;-59
2022/08/05 09:36:43;;;;;;;;;3.67;3.67;;;;;38.80;23.20;101621.81;5038826;28;45305;-60
2022/08/05 09:39:12;;;;;;;;;5.75;4.75;;;;;39.10;21.91;101617.94;5038809;28;46438;-60
2022/08/05 09:42:02;;;;;;;;;4.25;4.25;;;;;39.06;21.99;101617.59;5039707;28;45339;-60
2022/08/05 09:44:34;;;;;;;;;0.00;0.00;;;;;38.49;21.38;101618.38;5029029;28;45301;-59
2022/08/05 09:47:09;;;;;;;;;3.50;3.50;;;;;38.39;21.91;101622.59;5039608;28;45312;-60
2022/08/05 09:49:39;;;;;;;;;6.00;5.00;;;;;38.66;23.15;101622.06;5027331;28;46137;-59
2022/08/05 09:52:16;;;;;;;;;5.75;5.25;;;;;39.06;21.05;101617.59;5038944;28;45371;-59
2022/08/05 09:55:01;;;;;;;;;5.67;5.67;;;;;38.92;21.20;101627.31;5038581;28;45986;-59
2022/08/05 09:57:33;;;;;;;;;8.00;7.33;;;;;38.61;21.63;101633.06;5039537;28;45300;-59
2022/08/05 10:00:00;;;;;;;;;4.00;4.00;;;;;38.65;21.37;101625.09;5039327;28;46234;-59
2022/08/05 10:02:33;;;;;;;;;4.67;4.67;;;;;38.95;21.98;101624.06;5036248;28;45294;-59
2022/08/05 10:05:08;;;;;;;;;4.00;3.50;;;;;39.07;21.52;101622.06;5039731;28;45618;-60
2022/08/05 10:07:46;;;;;;;;;5.00;5.00;;;;;39.21;20.82;101615.13;5036143;28;45395;-60
2022/08/05 10:10:11;;;;;;;;;4.00;3.00;;;;;39.54;21.62;101616.28;5039374;28;45571;-60
2022/08/05 10:12:43;;;;;;;;;3.50;3.50;;;;;40.11;20.06;101617.22;5039267;28;45529;-60
2022/08/05 10:15:30;;;;;;;;;3.00;3.00;;;;;39.77;19.01;101613.63;5037840;28;45386;-60
2022/08/05 10:18:10;;;;;;;;;3.75;3.75;;;;;39.13;20.40;101626.63;5034467;28;45469;-59
2022/08/05 10:20:46;;;;;;;;;3.33;3.33;;;;;39.25;20.50;101612.69;5039141;28;46090;-59
2022/08/05 10:23:15;;;;;;;;;4.00;4.00;;;;;39.27;20.52;101609.66;5037073;28;45512;-59
2022/08/05 10:25:40;;;;;;;;;2.33;1.33;;;;;39.63;19.96;101621.47;5038411;28;45303;-59
2022/08/05 10:28:06;;;;;;;;;2.75;2.00;;;;;39.36;19.76;101617.38;5039189;28;50024;-59
2022/08/05 10:30:33;;;;;;;;;5.33;4.00;;;;;39.22;19.97;101618.78;5037378;28;66904;-59
2022/08/05 10:32:59;;;;;;;;;4.00;4.00;;;;;38.67;20.76;101620.13;5054772;28;45408;-59
2022/08/05 10:35:25;;;;;;;;;4.25;4.25;;;;;38.13;21.05;101621.16;5038848;28;45557;-59
2022/08/05 10:37:51;;;;;;;;;4.25;4.00;;;;;37.82;22.09;101623.22;5038864;28;45287;-59
2022/08/05 10:40:22;;;;;;;;;4.67;4.67;;;;;37.07;22.35;101622.59;5021281;28;45455;-59
2022/08/05 10:42:51;;;;;;;;;4.50;4.50;;;;;36.97;22.80;101619.53;5038070;28;45354;-59
2022/08/05 10:45:24;;;;;;;;;3.75;3.75;;;;;37.16;22.92;101622.28;5037171;28;45529;-59
2022/08/05 10:47:50;;;;;;;;;4.33;4.33;;;;;37.51;21.47;101622.41;5038029;28;45224;-59
2022/08/05 10:50:17;;;;;;;;;4.50;4.50;;;;;38.08;21.15;101618.25;5038296;28;46118;-59
2022/08/05 10:52:52;;;;;;;;;5.67;4.00;;;;;37.98;21.19;101627.19;5037866;28;45292;-59
2022/08/05 10:55:18;;;;;;;;;5.25;5.25;;;;;37.25;22.57;101626.41;5021221;28;45365;-59
2022/08/05 10:57:45;;;;;;;;;3.50;3.50;;;;;36.51;23.03;101637.56;5036970;28;45261;-59
2022/08/05 11:00:22;;;;;;;;;5.67;5.67;;;;;35.85;24.16;101637.13;5037863;28;45450;-60
2022/08/05 11:03:03;;;;;;;;;4.50;4.50;;;;;36.03;23.70;101630.78;5037599;28;45498;-59
2022/08/05 11:05:29;;;;;;;;;5.25;4.00;;;;;36.67;22.77;101633.34;5037641;28;45525;-60
2022/08/05 11:08:01;;;;;;;;;4.00;4.00;;;;;37.59;23.19;101635.09;5036950;28;45570;-60
2022/08/05 11:10:27;;;;;;;;;5.00;4.67;;;;;38.69;22.06;101629.06;5038304;28;45898;-60
2022/08/05 11:12:53;;;;;;;;;5.67;4.00;;;;;39.79;20.78;101642.88;5038909;28;45288;-60
2022/08/05 11:15:27;;;;;;;;;4.67;4.67;;;;;39.88;19.10;101646.06;5036996;28;45603;-59
2022/08/05 11:17:54;;;;;;;;;5.00;3.00;;;;;39.50;18.95;101640.13;5038661;28;45418;-60
2022/08/05 11:20:46;;;;;;;;;7.00;6.00;;;;;39.10;18.14;101643.84;5019529;28;45350;-59
2022/08/05 11:23:36;;;;;;;;;2.50;2.50;;;;;39.51;19.37;101640.97;5025106;28;45545;-60
2022/08/05 11:26:18;;;;;;;;;6.33;5.00;;;;;39.86;18.58;101635.19;5037634;28;45253;-60
2022/08/05 11:28:46;;;;;;;;;4.00;4.00;;;;;39.60;19.16;101647.81;5037704;28;45292;-60
2022/08/05 11:31:11;;;;;;;;;5.00;5.00;;;;;38.93;19.77;101662.38;5026812;28;46339;-59
2022/08/05 11:33:46;;;;;;;;;6.00;5.00;;;;;38.30;20.81;101657.38;5037436;28;45575;-59
2022/08/05 11:36:13;;;;;;;;;3.33;3.33;;;;;38.65;20.58;101659.28;5038098;28;45243;-60
2022/08/05 11:38:41;;;;;;;;;2.25;2.25;;;;;39.43;19.96;101653.34;5037072;28;45378;-60
2022/08/05 11:41:26;;;;;;;;;2.67;2.67;;;;;39.90;18.42;101657.81;5037969;28;46361;-60
2022/08/05 11:44:13;;;;;;;;;5.00;3.00;;;;;40.32;17.94;101662.09;5031198;28;45437;-59
2022/08/05 11:46:46;;;;;;;;;2.67;2.67;;;;;40.78;17.69;101659.09;5037123;28;45356;-60
2022/08/05 11:49:13;;;;;;;;;4.00;3.00;;;;;41.07;17.35;101661.69;5038468;28;45354;-60
2022/08/05 11:51:43;;;;;;;;;4.67;3.33;;;;;40.38;17.32;101657.41;5024943;28;45321;-60
2022/08/05 11:54:10;;;;;;;;;2.33;2.33;;;;;39.78;18.39;101659.81;5037166;28;45176;-60
2022/08/05 11:56:43;;;;;;;;;2.00;1.00;;;;;38.85;18.92;101666.38;5038020;28;45399;-60
2022/08/05 11:59:12;;;;;;;;;1.50;1.50;;;;;38.08;19.61;101667.41;5037783;28;45330;-59
2022/08/05 12:01:54;;;;;;;;;2.75;2.25;;;;;37.97;19.29;101664.38;5018978;28;47194;-59
2022/08/05 12:04:20;;;;;;;;;2.00;2.00;;;;;38.18;18.94;101657.38;5036978;28;45301;-60
2022/08/05 12:06:45;;;;;;;;;2.33;2.33;;;;;38.76;19.06;101653.97;5037622;28;45745;-60
2022/08/05 12:09:11;;;;;;;;;1.50;1.50;;;;;39.14;18.03;101656.13;5036003;28;45409;-60
2022/08/05 12:11:37;;;;;;;;;2.50;2.50;;;;;39.60;18.82;101658.94;5021291;28;46271;-60
2022/08/05 12:14:07;;;;;;;;;2.00;2.00;;;;;39.94;17.28;101658.97;5036426;28;45352;-60
2022/08/05 12:16:34;;;;;;;;;2.75;2.00;;;;;40.17;18.25;101666.34;5038020;28;45317;-60
2022/08/05 12:19:00;;;;;;;;;1.25;1.25;;;;;39.98;17.65;101654.56;5036252;28;45426;-60
2022/08/05 12:21:31;;;;;;;;;2.00;2.00;;;;;38.97;17.89;101667.22;5041234;28;46286;-60
2022/08/05 12:24:04;;;;;;;;;2.00;2.00;;;;;37.88;18.60;101674.97;5041195;28;45370;-60
2022/08/05 12:26:31;;;;;;;;;3.50;2.25;;;;;37.65;18.43;101667.41;5041173;28;45468;-60
2022/08/05 12:28:56;;;;;;;;;1.67;1.67;;;;;37.46;18.46;101669.44;5041271;28;45436;-60
2022/08/05 12:31:21;;;;;;;;;2.00;2.00;;;;;37.35;19.30;101659.13;5040329;28;45938;-60
2022/08/05 12:33:47;;;;;;;;;1.00;1.00;;;;;37.60;19.59;101664.53;5040899;28;45269;-60
2022/08/05 12:36:13;;;;;;;;;2.25;2.25;;;;;37.65;19.21;101675.72;5023677;28;45334;-60
2022/08/05 12:38:39;;;;;;;;;1.50;1.50;;;;;37.20;19.02;101667.88;5030911;28;45452;-60
2022/08/05 12:41:11;;;;;;;;;1.50;1.50;;;;;36.45;19.41;101682.78;5040298;28;46672;-61
2022/08/05 12:43:51;;;;;;;;;4.00;2.00;;;;;35.51;20.30;101676.06;5039461;28;45419;-60
2022/08/05 12:46:27;;;;;;;;;3.75;2.25;;;;;34.66;20.76;101679.78;5038700;28;45474;-60
2022/08/05 12:49:25;;;;;;;;;1.00;1.00;;;;;33.97;22.06;101693.00;5040638;28;45444;-60
2022/08/05 12:51:57;;;;;;;;;2.00;2.00;;;;;34.08;23.02;101688.75;5007561;28;69629;-60
2022/08/05 12:54:25;;;;;;;;;4.00;2.50;;;;;34.39;22.65;101704.72;5040437;28;45436;-60
2022/08/05 12:56:53;;;;;;;;;3.00;3.00;;;;;34.16;23.31;101702.34;5040083;28;45563;-60
2022/08/05 12:59:49;;;;;;;;;2.50;2.00;;;;;33.86;23.89;101699.13;5040353;28;45494;-59
2022/08/05 13:02:18;;;;;;;;;4.00;2.75;;;;;34.06;23.89;101702.75;5033848;28;47237;-60
2022/08/05 13:04:44;;;;;;;;;3.50;2.00;;;;;34.19;23.63;101704.66;5038619;28;45411;-59
2022/08/05 13:07:12;;;;;;;;;1.00;1.00;;;;;34.35;23.60;101695.13;5039503;28;45554;-60
2022/08/05 13:09:39;;;;;;;;;2.00;2.00;;;;;34.60;23.17;101698.06;5039998;28;45286;-60
2022/08/05 13:12:11;;;;;;;;;1.00;1.00;;;;;34.77;22.75;101690.16;5038765;28;45485;-60
2022/08/05 13:14:42;;;;;;;;;1.50;0.00;;;;;35.03;23.45;101693.94;5055506;28;45343;-60
2022/08/05 13:17:09;;;;;;;;;2.00;2.00;;;;;35.17;22.47;101686.41;5038813;28;45382;-60
2022/08/05 13:19:35;;;;;;;;;3.00;3.00;;;;;34.68;22.94;101690.59;5040290;28;45292;-60
2022/08/05 13:22:01;;;;;;;;;2.00;2.00;;;;;33.89;23.40;101702.31;5037484;28;46491;-60
2022/08/05 13:24:26;;;;;;;;;3.50;3.00;;;;;33.26;23.92;101699.81;5029121;28;70100;-60
2022/08/05 13:26:51;;;;;;;;;1.25;1.25;;;;;32.95;24.36;101704.75;5038426;28;67840;-60
2022/08/05 13:29:19;;;;;;;;;1.75;1.75;;;;;32.65;25.14;101698.63;5040168;28;45233;-59
2022/08/05 13:31:44;;;;;;;;;2.00;2.00;;;;;32.52;25.40;101698.53;5038708;28;47000;-59
2022/08/05 13:34:10;;;;;;;;;1.75;1.75;;;;;31.98;25.98;101712.69;5038788;28;45575;-59
2022/08/05 13:36:36;;;;;;;;;1.00;1.00;;;;;31.84;25.67;101706.19;5038508;28;45244;-58
2022/08/05 13:39:03;;;;;;;;;2.25;2.00;;;;;31.54;26.59;101705.44;5038872;28;45408;-59
2022/08/05 13:41:28;;;;;;;;;4.00;4.00;;;;;31.16;26.44;101705.63;5036995;28;45372;-59
2022/08/05 13:43:54;;;;;;;;;4.33;3.00;;;;;30.53;26.76;101714.19;5038717;28;73345;-59
2022/08/05 13:46:23;;;;;;;;;2.00;2.00;;;;;30.17;27.24;101714.88;5036268;28;45314;-59
2022/08/05 13:48:48;;;;;;;;;4.75;3.50;;;;;29.96;27.87;101710.06;5039712;28;45439;-58
2022/08/05 13:51:13;;;;;;;;;3.75;2.25;;;;;29.84;27.88;101720.56;5036809;28;74495;-60
2022/08/05 13:53:40;;;;;;;;;2.67;2.67;;;;;29.91;27.92;101707.88;5038502;28;45245;-59
2022/08/05 13:56:05;;;;;;;;;2.67;2.67;;;;;29.88;28.21;101730.16;5039944;28;45530;-59
2022/08/05 13:58:31;;;;;;;;;0.25;0.00;;;;;29.53;28.56;101710.50;5039442;28;45269;-59
2022/08/05 14:00:57;;;;;;;;;1.00;1.00;;;;;29.37;28.79;101726.00;5036168;28;47050;-59
2022/08/05 14:03:22;;;;;;;;;0.00;0.00;;;;;29.00;29.68;101718.44;5039254;28;45483;-59
2022/08/05 14:05:47;;;;;;;;;2.67;2.67;;;;;28.86;29.93;101717.28;5039248;28;45849;-59
2022/08/05 14:08:13;;;;;;;;;2.75;2.25;;;;;28.91;29.94;101722.22;5039058;28;45453;-59
2022/08/05 14:10:39;;;;;;;;;3.75;2.75;;;;;29.09;29.16;101719.25;5037148;28;45498;-59
2022/08/05 14:13:08;;;;;;;;;0.50;0.50;;;;;29.12;29.06;101716.16;5039618;28;45378;-59
2022/08/05 14:15:34;;;;;;;;;3.00;3.00;;;;;29.07;29.87;101718.56;5034561;28;45239;-60
2022/08/05 14:18:00;;;;;;;;;2.67;2.67;;;;;29.16;29.16;101714.75;5039595;28;45311;-59
2022/08/05 14:20:26;;;;;;;;;2.25;2.25;;;;;29.27;29.13;101711.66;5039234;28;46110;-59
2022/08/05 14:22:52;;;;;;;;;2.00;2.00;;;;;29.31;29.01;101723.13;5029500;28;45395;-59
2022/08/05 14:25:20;;;;;;;;;4.00;3.25;;;;;29.34;29.32;101725.50;5036180;28;45525;-59
2022/08/05 14:27:47;;;;;;;;;2.50;2.50;;;;;29.37;29.18;101734.22;5020878;28;45312;-59
2022/08/05 14:30:12;;;;;;;;;1.50;1.25;;;;;29.29;28.69;101726.03;5038795;28;46233;-59
2022/08/05 14:32:37;;;;;;;;;2.00;2.00;;;;;29.10;28.83;101727.28;5038708;28;45560;-59
2022/08/05 14:35:03;;;;;;;;;3.50;3.50;;;;;28.83;29.10;101725.84;5037456;28;63672;-59
2022/08/05 14:37:29;;;;;;;;;3.33;3.33;;;;;28.51;29.49;101733.03;5038888;28;45654;-59
2022/08/05 14:39:54;;;;;;;;;2.25;2.25;;;;;28.46;29.41;101729.97;5037533;28;60462;-60
2022/08/05 14:42:21;;;;;;;;;1.00;1.00;;;;;28.54;30.04;101717.16;5038907;28;45327;-59
2022/08/05 14:44:46;;;;;;;;;3.00;1.33;;;;;28.50;29.01;101725.84;5037293;28;45547;-59
2022/08/05 14:47:12;;;;;;;;;4.33;2.00;;;;;28.28;29.37;101716.47;5037668;28;58174;-59
2022/08/05 14:49:38;;;;;;;;;1.67;1.67;;;;;28.35;29.72;101723.81;5038306;28;46375;-59
2022/08/05 14:52:03;;;;;;;;;3.00;3.00;;;;;28.34;29.72;101716.66;5038503;28;57071;-59
2022/08/05 14:54:29;;;;;;;;;2.00;2.00;;;;;28.36;29.32;101722.81;5037892;28;45280;-59
2022/08/05 14:56:54;;;;;;;;;2.75;1.25;;;;;28.26;29.44;101713.06;5038320;28;45507;-59
2022/08/05 14:59:20;;;;;;;;;2.67;2.00;;;;;28.18;29.83;101720.25;5036786;28;46398;-59
2022/08/05 15:01:46;;;;;;;;;2.00;2.00;;;;;28.19;29.93;101721.97;5038309;28;45451;-59
2022/08/05 15:04:11;;;;;;;;;3.33;3.33;;;;;28.17;29.66;101726.75;5037713;28;63774;-59
2022/08/05 15:06:37;;;;;;;;;5.33;3.00;;;;;27.95;29.64;101721.91;5037187;28;67352;-58
2022/08/05 15:09:03;;;;;;;;;2.75;2.75;;;;;27.90;30.02;101727.91;5037034;28;45465;-59
2022/08/05 15:11:30;;;;;;;;;2.67;1.00;;;;;27.77;30.45;101731.13;5037903;28;45222;-59
2022/08/05 15:13:55;;;;;;;;;2.33;2.33;;;;;27.69;30.48;101745.63;5036937;28;45647;-59
2022/08/05 15:16:20;;;;;;;;;2.00;2.00;;;;;27.58;30.40;101736.91;5037749;28;59937;-59
2022/08/05 15:18:46;;;;;;;;;2.00;2.00;;;;;27.60;30.12;101732.09;5036785;28;45435;-59
2022/08/05 15:21:11;;;;;;;;;3.00;3.00;;;;;27.64;30.53;101737.09;5038511;28;45413;-59
2022/08/05 15:23:36;;;;;;;;;3.00;3.00;;;;;27.60;30.31;101737.56;5036418;28;47662;-60
2022/08/05 15:26:02;;;;;;;;;2.00;2.00;;;;;27.52;30.51;101736.53;5037518;28;63163;-60
2022/08/05 15:28:27;;;;;;;;;2.50;2.00;;;;;27.54;29.46;101733.63;5038265;28;46419;-59
2022/08/05 15:30:52;;;;;;;;;3.75;1.25;;;;;27.65;29.61;101732.47;5037896;28;46384;-58
2022/08/05 15:33:18;;;;;;;;;1.75;1.75;;;;;27.84;29.89;101734.88;5037294;28;64968;-59
2022/08/05 15:35:43;;;;;;;;;1.00;1.00;;;;;27.93;30.02;101726.72;5037989;28;45489;-58
2022/08/05 15:38:08;;;;;;;;;3.00;3.00;;;;;27.76;29.86;101729.41;5036361;28;74027;-59
2022/08/05 15:40:34;;;;;;;;;0.75;0.75;;;;;27.61;30.41;101736.56;5036913;28;72116;-59
2022/08/05 15:42:59;;;;;;;;;2.75;2.75;;;;;27.40;30.61;101751.50;5037641;28;45667;-59
2022/08/05 15:45:25;;;;;;;;;1.33;1.00;;;;;27.34;30.17;101736.63;5036784;28;63257;-59
2022/08/05 15:47:50;;;;;;;;;1.67;1.67;;;;;27.34;30.37;101736.63;5036620;28;46883;-59
2022/08/05 15:50:15;;;;;;;;;2.67;2.67;;;;;27.37;30.62;101749.09;5044910;28;45428;-58
2022/08/05 15:52:41;;;;;;;;;2.00;1.00;;;;;27.36;30.81;101747.38;5047475;28;45465;-59
2022/08/05 15:55:09;;;;;;;;;2.00;2.00;;;;;27.30;30.82;101742.56;5027095;28;45761;-59
2022/08/05 15:57:35;;;;;;;;;2.00;2.00;;;;;27.29;30.46;101747.19;5039028;28;45496;-59
2022/08/05 16:00:04;;;;;;;;;1.67;1.67;;;;;27.30;30.14;101750.75;5036839;28;45572;-59